Impacts TAF Board
For situational awareness. Not to be used for flight planning purposes.
IDs:

KALW - Walla Walla Rgnl, WA, US

Issued at 0536 UTC 22 Oct 2021
Updated at 0705 UTC 22 Oct 2021
Potential Impact None Slight Moderate High
Time0653Z 22/08Z 22/09Z 22/10Z 22/11Z 22/12Z 22/13Z 22/14Z 22/15Z 22/16Z 22/17Z 22/18Z 22/19Z 22/20Z>>
Type OBS PRVL PRVL PRVL
  [TEMP]  
PRVL
  [TEMP]  
PRVL
  [TEMP]  
PRVL
  [TEMP]  
PRVL PRVL PRVL PRVL PRVL PRVL PRVL
VIS 10 >6 >6 >6
  [6]  
>6
  [6]  
>6
  [6]  
>6
  [6]  
6 6 6 6 6 6 3
CIG -- 90 90 90
  [40]  
90
  [40]  
90
  [40]  
90
  [40]  
35 35 35 35 35 35 21
Cover CLR OVC OVC OVC
  [OVC]  
OVC
  [OVC]  
OVC
  [OVC]  
OVC
  [OVC]  
OVC OVC OVC OVC OVC OVC OVC
FltCat VFR VFR VFR VFR
  [VFR]  
VFR
  [VFR]  
VFR
  [VFR]  
VFR
  [VFR]  
VFR VFR VFR VFR VFR VFR MVFR
WX -RA -- -- --
  [-RA BR]  
--
  [-RA BR]  
--
  [-RA BR]  
--
  [-RA BR]  
-RA BR -RA BR -RA BR -RA BR -RA BR -RA BR RA BR
WDir 170 170 170 170
[170]
170
[170]
170
[170]
170
[170]
170 170 170 170 170 170 200
WSpd 17 11 11 11
  [11]  
11
  [11]  
11
  [11]  
11
  [11]  
11 11 11 11 11 11 9
WGst 32 -- -- --
  [--]  
--
  [--]  
--
  [--]  
--
  [--]  
-- -- -- -- -- -- --
Raw TAF
KALW 220536Z 2206/2306 17011KT P6SM OVC090
  TEMPO 2210/2214 6SM -RA BR OVC040
  FM221400 17011KT 6SM -RA BR OVC035
  FM222000 20009KT 3SM RA BR OVC021
  FM230200 20011G17KT P6SM -SHRA OVC040


Raw METAR
KALW 220653Z AUTO 17017G32KT 10SM -RA CLR 25/04 A2965 RMK AO2 PK WND 16037/0639 SLP035 P0000 T02500044
KALW 220553Z AUTO 16022G33KT 10SM -RA CLR 24/04 A2968 RMK AO2 PK WND 18033/0553 RAB14 SLP045 P0000 60000 T02440044 10250 20122 58037
KALW 220453Z AUTO 00000KT 10SM FEW014 22/05 A2971 RMK AO2 PRESFR SLP058 T02170050

METAR Board
Radar Display
Forecast Discussion
For situational awareness. Not to be used for flight planning purposes.